createdAt,value
2018-08-12T00:00:38.041Z,0
2018-08-12T00:01:38.035Z,0
2018-08-12T00:02:38.029Z,0
2018-08-12T00:03:37.761Z,0
2018-08-12T00:04:38.013Z,0
2018-08-12T00:05:38.011Z,0
2018-08-12T00:06:37.983Z,0
2018-08-12T00:07:37.991Z,0
2018-08-12T00:08:37.709Z,0
2018-08-12T00:09:37.696Z,0
2018-08-12T00:10:37.950Z,0
2018-08-12T00:11:37.683Z,0
2018-08-12T00:12:37.679Z,0
2018-08-12T00:13:37.662Z,0
2018-08-12T00:14:37.402Z,0
2018-08-12T00:15:37.646Z,0
2018-08-12T00:16:37.639Z,0
2018-08-12T00:17:37.884Z,0
2018-08-12T00:18:37.886Z,0
2018-08-12T00:19:37.614Z,0
2018-08-12T00:20:37.603Z,0
2018-08-12T00:21:37.862Z,0
2018-08-12T00:22:37.584Z,0
2018-08-12T00:23:37.843Z,0
2018-08-12T00:24:37.355Z,0
2018-08-12T00:25:37.829Z,0
2018-08-12T00:26:37.811Z,0
2018-08-12T00:27:37.552Z,0
2018-08-12T00:28:37.528Z,0
2018-08-12T00:29:37.522Z,0
2018-08-12T00:30:37.514Z,0
2018-08-12T00:31:37.504Z,0
2018-08-12T00:32:37.501Z,0
2018-08-12T00:33:37.755Z,0
2018-08-12T00:34:37.735Z,0
2018-08-12T00:35:37.472Z,0
2018-08-12T00:36:37.722Z,0
2018-08-12T00:37:37.458Z,0
2018-08-12T00:38:37.498Z,0
2018-08-12T00:39:37.433Z,0
2018-08-12T00:40:37.685Z,0
2018-08-12T00:41:37.413Z,0
2018-08-12T00:42:37.401Z,0
2018-08-12T00:43:37.656Z,0
2018-08-12T00:44:37.655Z,0
2018-08-12T00:45:37.124Z,0
2018-08-12T00:46:37.112Z,0
2018-08-12T00:47:37.617Z,0
2018-08-12T00:48:37.607Z,0
2018-08-12T00:49:37.339Z,0
2018-08-12T00:50:37.590Z,0
2018-08-12T00:51:37.324Z,0
2018-08-12T00:52:37.315Z,0
2018-08-12T00:53:37.306Z,0
2018-08-12T00:54:37.039Z,0
2018-08-12T00:55:37.560Z,0
2018-08-12T00:56:37.538Z,0
2018-08-12T00:57:37.011Z,0
2018-08-12T00:58:37.526Z,0
2018-08-12T00:59:36.992Z,0
2018-08-12T01:00:36.725Z,0
2018-08-12T01:01:37.232Z,0
2018-08-12T01:02:37.228Z,0
2018-08-12T01:03:37.216Z,0
2018-08-12T01:04:36.952Z,0
2018-08-12T01:05:37.453Z,0
2018-08-12T01:06:36.949Z,0
2018-08-12T01:07:37.177Z,0
2018-08-12T01:08:37.423Z,0
2018-08-12T01:09:37.166Z,0
2018-08-12T01:10:37.158Z,0
2018-08-12T01:11:37.392Z,0
2018-08-12T01:12:36.875Z,0
2018-08-12T01:13:37.121Z,0
2018-08-12T01:14:37.368Z,0
2018-08-12T01:15:36.850Z,0
2018-08-12T01:16:37.107Z,0
2018-08-12T01:17:37.096Z,0
2018-08-12T01:18:37.341Z,0
2018-08-12T01:19:37.324Z,0
2018-08-12T01:20:37.316Z,0
2018-08-12T01:21:37.308Z,0
2018-08-12T01:22:37.295Z,0
2018-08-12T01:23:37.042Z,0
2018-08-12T01:24:37.280Z,0
2018-08-12T01:25:37.276Z,0
2018-08-12T01:26:37.004Z,0
2018-08-12T01:27:37.245Z,0
2018-08-12T01:28:37.251Z,0
2018-08-12T01:29:37.236Z,0
2018-08-12T01:30:37.221Z,0
2018-08-12T01:31:36.700Z,0
2018-08-12T01:32:37.201Z,0
2018-08-12T01:33:37.194Z,0
2018-08-12T01:34:37.180Z,0
2018-08-12T01:35:36.919Z,0
2018-08-12T01:36:37.183Z,0
2018-08-12T01:37:37.157Z,0
2018-08-12T01:38:36.890Z,0
2018-08-12T01:39:37.151Z,0
2018-08-12T01:40:36.617Z,0
2018-08-12T01:41:36.353Z,0
2018-08-12T01:42:37.120Z,0
2018-08-12T01:43:37.110Z,0
2018-08-12T01:44:36.831Z,0
2018-08-12T01:45:37.079Z,0
2018-08-12T01:46:37.074Z,0
2018-08-12T01:47:37.057Z,0
2018-08-12T01:48:37.049Z,0
2018-08-12T01:49:36.790Z,0
2018-08-12T01:50:37.033Z,0
2018-08-12T01:51:37.027Z,0
2018-08-12T01:52:36.758Z,0
2018-08-12T01:53:37.006Z,0
2018-08-12T01:54:36.995Z,0
2018-08-12T01:55:36.980Z,0
2018-08-12T01:56:36.977Z,0
2018-08-12T01:57:36.966Z,0
2018-08-12T01:58:36.967Z,0
2018-08-12T01:59:36.695Z,0
2018-08-12T02:00:36.429Z,0
2018-08-12T02:01:36.935Z,0
2018-08-12T02:02:36.929Z,0
2018-08-12T02:03:36.917Z,0
2018-08-12T02:04:36.904Z,0
2018-08-12T02:05:36.383Z,0
2018-08-12T02:06:36.891Z,0
2018-08-12T02:07:36.629Z,0
2018-08-12T02:08:36.869Z,0
2018-08-12T02:09:36.856Z,0
2018-08-12T02:10:36.585Z,0
2018-08-12T02:11:36.583Z,0
2018-08-12T02:12:36.579Z,0
2018-08-12T02:13:36.567Z,0
2018-08-12T02:14:36.553Z,0
2018-08-12T02:15:36.807Z,0
2018-08-12T02:16:36.790Z,0
2018-08-12T02:17:36.791Z,0
2018-08-12T02:18:36.774Z,0
2018-08-12T02:19:36.765Z,0
2018-08-12T02:20:36.756Z,0
2018-08-12T02:21:36.487Z,0
2018-08-12T02:22:36.738Z,0
2018-08-12T02:23:36.733Z,0
2018-08-12T02:24:36.200Z,0
2018-08-12T02:25:36.715Z,0
2018-08-12T02:26:36.183Z,0
2018-08-12T02:27:36.700Z,0
2018-08-12T02:28:36.428Z,0
2018-08-12T02:29:36.676Z,0
2018-08-12T02:30:36.690Z,0
2018-08-12T02:31:36.659Z,0
2018-08-12T02:32:36.392Z,0
2018-08-12T02:33:36.685Z,0
2018-08-12T02:34:36.630Z,0
2018-08-12T02:35:36.360Z,0
2018-08-12T02:36:36.610Z,0
2018-08-12T02:37:36.357Z,0
2018-08-12T02:38:36.341Z,0
2018-08-12T02:39:36.320Z,0
2018-08-12T02:40:36.318Z,0
2018-08-12T02:41:36.311Z,0
2018-08-12T02:42:36.308Z,0
2018-08-12T02:43:36.031Z,0
2018-08-12T02:44:36.283Z,0
2018-08-12T02:45:36.272Z,0
2018-08-12T02:46:36.513Z,0
2018-08-12T02:47:36.518Z,0
2018-08-12T02:48:36.503Z,0
2018-08-12T02:49:36.231Z,0
2018-08-12T02:50:36.484Z,0
2018-08-12T02:51:36.473Z,0
2018-08-12T02:52:36.199Z,0
2018-08-12T02:53:36.466Z,0
2018-08-12T02:54:36.439Z,0
2018-08-12T02:55:36.454Z,0
2018-08-12T02:56:36.432Z,0
2018-08-12T02:57:36.416Z,0
2018-08-12T02:58:36.404Z,0
2018-08-12T02:59:36.140Z,0
2018-08-12T03:00:36.128Z,0
2018-08-12T03:01:36.123Z,0
2018-08-12T03:02:36.114Z,0
2018-08-12T03:03:36.109Z,0
2018-08-12T03:04:36.347Z,0
2018-08-12T03:05:36.342Z,0
2018-08-12T03:06:36.325Z,0
2018-08-12T03:07:36.321Z,0
2018-08-12T03:08:36.055Z,0
2018-08-12T03:09:36.051Z,0
2018-08-12T03:10:36.306Z,0
2018-08-12T03:11:36.289Z,0
2018-08-12T03:12:36.279Z,0
2018-08-12T03:13:36.010Z,0
2018-08-12T03:14:36.253Z,0
2018-08-12T03:15:36.248Z,0
2018-08-12T03:16:35.979Z,0
2018-08-12T03:17:35.977Z,0
2018-08-12T03:18:36.215Z,0
2018-08-12T03:19:36.225Z,4
2018-08-12T03:20:35.941Z,4
2018-08-12T03:21:36.190Z,0
2018-08-12T03:22:36.294Z,4
2018-08-12T03:23:36.178Z,4
2018-08-12T03:24:36.174Z,0
2018-08-12T03:25:36.157Z,4
2018-08-12T03:26:36.139Z,8
2018-08-12T03:27:36.130Z,4
2018-08-12T03:28:36.124Z,4
2018-08-12T03:29:36.119Z,8
2018-08-12T03:30:36.108Z,12
2018-08-12T03:31:36.182Z,12
2018-08-12T03:32:35.830Z,12
2018-08-12T03:33:36.073Z,16
2018-08-12T03:34:35.555Z,20
2018-08-12T03:35:36.055Z,20
2018-08-12T03:36:35.789Z,24
2018-08-12T03:37:35.524Z,28
2018-08-12T03:38:35.770Z,32
2018-08-12T03:39:36.018Z,36
2018-08-12T03:40:35.757Z,44
2018-08-12T03:41:36.062Z,48
2018-08-12T03:42:35.745Z,52
2018-08-12T03:43:35.725Z,60
2018-08-12T03:44:35.981Z,68
2018-08-12T03:45:35.457Z,72
2018-08-12T03:46:35.956Z,84
2018-08-12T03:47:35.689Z,92
2018-08-12T03:48:35.674Z,100
2018-08-12T03:49:35.674Z,108
2018-08-12T03:50:35.922Z,116
2018-08-12T03:51:35.650Z,132
2018-08-12T03:52:35.895Z,144
2018-08-12T03:53:35.633Z,160
2018-08-12T03:54:35.878Z,176
2018-08-12T03:55:36.245Z,192
2018-08-12T03:56:35.872Z,216
2018-08-12T03:57:35.864Z,240
2018-08-12T03:58:35.848Z,264
2018-08-12T03:59:35.831Z,288
2018-08-12T04:00:35.572Z,308
2018-08-12T04:01:35.562Z,328
2018-08-12T04:02:35.560Z,352
2018-08-12T04:03:35.541Z,376
2018-08-12T04:04:35.798Z,400
2018-08-12T04:05:35.527Z,428
2018-08-12T04:06:35.768Z,448
2018-08-12T04:07:35.761Z,472
2018-08-12T04:08:35.760Z,496
2018-08-12T04:09:35.748Z,516
2018-08-12T04:10:35.479Z,540
2018-08-12T04:11:35.716Z,564
2018-08-12T04:12:35.455Z,588
2018-08-12T04:13:35.710Z,616
2018-08-12T04:14:35.699Z,644
2018-08-12T04:15:35.681Z,672
2018-08-12T04:16:35.169Z,696
2018-08-12T04:17:35.675Z,724
2018-08-12T04:18:35.664Z,744
2018-08-12T04:19:35.656Z,764
2018-08-12T04:20:35.638Z,784
2018-08-12T04:21:35.654Z,808
2018-08-12T04:22:35.376Z,836
2018-08-12T04:23:35.644Z,868
2018-08-12T04:24:35.615Z,900
2018-08-12T04:25:35.100Z,932
2018-08-12T04:26:35.331Z,956
2018-08-12T04:27:35.327Z,984
2018-08-12T04:28:35.572Z,1008
2018-08-12T04:29:35.579Z,1028
2018-08-12T04:30:35.044Z,1052
2018-08-12T04:31:35.552Z,1084
2018-08-12T04:32:35.532Z,1116
2018-08-12T04:33:35.277Z,1156
2018-08-12T04:34:35.512Z,1196
2018-08-12T04:35:35.253Z,1240
2018-08-12T04:36:35.551Z,1272
2018-08-12T04:37:35.493Z,1308
2018-08-12T04:38:35.485Z,1340
2018-08-12T04:39:35.493Z,1368
2018-08-12T04:40:35.470Z,1392
2018-08-12T04:41:35.458Z,1416
2018-08-12T04:42:35.443Z,1432
2018-08-12T04:43:35.443Z,1444
2018-08-12T04:44:35.432Z,1460
2018-08-12T04:45:35.422Z,1476
2018-08-12T04:46:35.162Z,1500
2018-08-12T04:47:35.405Z,1536
2018-08-12T04:48:35.394Z,1576
2018-08-12T04:49:35.138Z,1616
2018-08-12T04:50:35.380Z,1660
2018-08-12T04:51:35.372Z,1704
2018-08-12T04:52:34.849Z,1740
2018-08-12T04:53:35.098Z,1776
2018-08-12T04:54:35.341Z,1800
2018-08-12T04:55:35.080Z,1820
2018-08-12T04:56:35.322Z,1828
2018-08-12T04:57:35.061Z,1836
2018-08-12T04:58:35.053Z,1852
2018-08-12T04:59:35.295Z,1876
2018-08-12T05:00:35.314Z,1904
2018-08-12T05:01:35.281Z,1932
2018-08-12T05:02:35.274Z,1952
2018-08-12T05:03:35.009Z,1976
2018-08-12T05:04:35.260Z,1992
2018-08-12T05:05:35.001Z,2016
2018-08-12T05:06:35.242Z,2044
2018-08-12T05:07:35.246Z,2072
2018-08-12T05:08:35.232Z,2108
2018-08-12T05:09:35.012Z,2132
2018-08-12T05:10:35.215Z,2148
2018-08-12T05:11:35.201Z,2160
2018-08-12T05:12:35.203Z,2168
2018-08-12T05:13:34.936Z,2184
2018-08-12T05:14:35.180Z,2204
2018-08-12T05:15:35.168Z,2228
2018-08-12T05:16:34.909Z,2244
2018-08-12T05:17:34.641Z,2264
2018-08-12T05:18:34.901Z,2288
2018-08-12T05:19:35.139Z,2308
2018-08-12T05:20:34.875Z,2324
2018-08-12T05:21:34.871Z,2336
2018-08-12T05:22:35.117Z,2340
2018-08-12T05:23:34.862Z,2352
2018-08-12T05:24:34.587Z,2360
2018-08-12T05:25:35.093Z,2368
2018-08-12T05:26:35.082Z,2384
2018-08-12T05:27:35.090Z,2400
2018-08-12T05:28:34.818Z,2420
2018-08-12T05:29:35.068Z,2444
2018-08-12T05:30:35.051Z,2472
2018-08-12T05:31:34.785Z,2500
2018-08-12T05:32:34.779Z,2532
2018-08-12T05:33:35.026Z,2556
2018-08-12T05:34:34.777Z,2588
2018-08-12T05:35:34.762Z,2624
2018-08-12T05:36:35.005Z,2660
2018-08-12T05:37:35.005Z,2692
2018-08-12T05:38:35.005Z,2736
2018-08-12T05:39:34.734Z,2784
2018-08-12T05:40:34.990Z,2832
2018-08-12T05:41:34.459Z,2888
2018-08-12T05:42:34.709Z,2948
2018-08-12T05:43:34.959Z,3012
2018-08-12T05:44:34.691Z,3072
2018-08-12T05:45:34.942Z,3140
2018-08-12T05:46:34.674Z,3208
2018-08-12T05:47:34.669Z,3292
2018-08-12T05:48:34.926Z,3392
2018-08-12T05:49:34.915Z,3500
2018-08-12T05:50:34.914Z,3596
2018-08-12T05:51:34.884Z,3696
2018-08-12T05:52:34.892Z,3788
2018-08-12T05:53:34.882Z,3872
2018-08-12T05:54:34.893Z,3948
2018-08-12T05:55:34.361Z,4016
2018-08-12T05:56:34.864Z,4080
2018-08-12T05:57:34.353Z,4148
2018-08-12T05:58:34.601Z,4200
2018-08-12T05:59:34.850Z,4248
2018-08-12T06:00:34.591Z,4292
2018-08-12T06:01:34.839Z,4324
2018-08-12T06:02:34.837Z,4344
2018-08-12T06:03:34.571Z,4364
2018-08-12T06:04:34.822Z,4412
2018-08-12T06:05:34.805Z,4460
2018-08-12T06:06:34.808Z,4496
2018-08-12T06:07:34.536Z,4528
2018-08-12T06:08:34.531Z,4560
2018-08-12T06:09:34.791Z,4612
2018-08-12T06:10:34.790Z,4652
2018-08-12T06:11:34.512Z,4692
2018-08-12T06:12:34.513Z,4748
2018-08-12T06:13:34.503Z,4788
2018-08-12T06:14:34.504Z,4800
2018-08-12T06:15:34.865Z,4836
2018-08-12T06:16:34.755Z,4868
2018-08-12T06:17:34.522Z,4912
2018-08-12T06:18:34.478Z,4964
2018-08-12T06:19:34.209Z,5044
2018-08-12T06:20:34.721Z,5136
2018-08-12T06:21:34.459Z,5228
2018-08-12T06:22:34.450Z,5328
2018-08-12T06:23:34.708Z,5444
2018-08-12T06:24:34.694Z,5596
2018-08-12T06:25:34.206Z,5708
2018-08-12T06:26:34.438Z,5836
2018-08-12T06:27:34.691Z,5956
2018-08-12T06:28:34.426Z,6060
2018-08-12T06:29:34.417Z,6152
2018-08-12T06:30:34.411Z,6248
2018-08-12T06:31:34.924Z,6360
2018-08-12T06:32:34.150Z,6476
2018-08-12T06:33:34.398Z,6592
2018-08-12T06:34:34.331Z,6720
2018-08-12T06:35:34.644Z,6844
2018-08-12T06:36:34.634Z,6956
2018-08-12T06:37:34.378Z,7024
2018-08-12T06:38:34.626Z,7176
2018-08-12T06:39:34.367Z,7332
2018-08-12T06:40:34.617Z,7472
2018-08-12T06:41:34.103Z,7596
2018-08-12T06:42:34.107Z,7720
2018-08-12T06:43:34.598Z,7828
2018-08-12T06:44:34.600Z,7972
2018-08-12T06:45:34.620Z,8104
2018-08-12T06:46:34.754Z,8312
2018-08-12T06:47:34.597Z,8520
2018-08-12T06:48:34.593Z,8624
2018-08-12T06:49:34.334Z,8812
2018-08-12T06:50:34.580Z,9256
2018-08-12T06:51:34.577Z,10424
2018-08-12T06:52:33.798Z,11096
2018-08-12T06:53:34.565Z,13080
2018-08-12T06:54:34.048Z,15472
2018-08-12T06:55:34.306Z,17920
2018-08-12T06:56:34.297Z,20032
2018-08-12T06:57:34.552Z,22144
2018-08-12T06:58:34.553Z,21568
2018-08-12T06:59:34.289Z,20640
2018-08-12T07:00:34.163Z,20992
2018-08-12T07:01:34.024Z,21632
2018-08-12T07:02:34.544Z,21024
2018-08-12T07:03:34.283Z,21472
2018-08-12T07:04:34.553Z,20000
2018-08-12T07:05:34.534Z,23296
2018-08-12T07:06:34.526Z,23488
2018-08-12T07:07:34.522Z,24608
2018-08-12T07:08:34.514Z,24384
2018-08-12T07:09:34.516Z,25120
2018-08-12T07:10:34.265Z,26848
2018-08-12T07:11:34.520Z,26496
2018-08-12T07:12:34.013Z,27392
2018-08-12T07:13:34.531Z,27968
2018-08-12T07:14:34.628Z,30496
2018-08-12T07:15:34.512Z,27232
2018-08-12T07:16:34.254Z,27360
2018-08-12T07:17:34.283Z,26944
2018-08-12T07:18:34.514Z,21344
2018-08-12T07:19:34.511Z,18272
2018-08-12T07:20:34.253Z,17952
2018-08-12T07:21:34.510Z,18752
2018-08-12T07:22:34.518Z,17696
2018-08-12T07:23:34.510Z,20000
2018-08-12T07:24:34.253Z,23424
2018-08-12T07:25:34.254Z,24288
2018-08-12T07:26:34.509Z,25664
2018-08-12T07:27:34.513Z,21632
2018-08-12T07:28:34.522Z,23264
2018-08-12T07:29:34.256Z,20608
2018-08-12T07:30:34.515Z,13776
2018-08-12T07:31:34.525Z,11788
2018-08-12T07:32:34.523Z,11164
2018-08-12T07:33:34.530Z,10876
2018-08-12T07:34:34.263Z,10444
2018-08-12T07:35:34.270Z,10172
2018-08-12T07:36:34.533Z,10156
2018-08-12T07:37:34.272Z,10252
2018-08-12T07:38:34.592Z,10184
2018-08-12T07:39:34.274Z,9952
2018-08-12T07:40:34.317Z,9660
2018-08-12T07:41:34.535Z,9572
2018-08-12T07:42:33.765Z,9476
2018-08-12T07:43:34.581Z,9084
2018-08-12T07:44:34.546Z,8972
2018-08-12T07:45:34.538Z,8824
2018-08-12T07:46:34.543Z,8832
2018-08-12T07:47:34.289Z,8880
2018-08-12T07:48:34.548Z,8784
2018-08-12T07:49:34.289Z,8888
2018-08-12T07:50:34.035Z,8716
2018-08-12T07:51:34.558Z,8604
2018-08-12T07:52:34.296Z,8500
2018-08-12T07:53:34.301Z,8512
2018-08-12T07:54:34.559Z,8500
2018-08-12T07:55:34.803Z,8480
2018-08-12T07:56:34.557Z,8384
2018-08-12T07:57:34.618Z,8312
2018-08-12T07:58:34.566Z,8192
2018-08-12T07:59:34.308Z,8088
2018-08-12T08:00:34.569Z,8004
2018-08-12T08:01:34.316Z,8060
2018-08-12T08:02:34.312Z,8052
2018-08-12T08:03:34.576Z,8056
2018-08-12T08:04:34.313Z,8044
2018-08-12T08:05:34.320Z,8040
2018-08-12T08:06:34.321Z,7968
2018-08-12T08:07:34.321Z,7896
2018-08-12T08:08:34.334Z,7880
2018-08-12T08:09:34.072Z,7860
2018-08-12T08:10:34.326Z,7796
2018-08-12T08:11:34.586Z,7620
2018-08-12T08:12:34.527Z,7520
2018-08-12T08:13:34.582Z,7384
2018-08-12T08:14:34.586Z,7168
2018-08-12T08:15:34.338Z,7004
2018-08-12T08:16:34.076Z,6748
2018-08-12T08:17:34.334Z,6568
2018-08-12T08:18:34.338Z,6364
2018-08-12T08:19:34.337Z,6288
2018-08-12T08:20:34.336Z,6164
2018-08-12T08:21:33.823Z,5980
2018-08-12T08:22:34.610Z,5840
2018-08-12T08:23:34.347Z,5668
2018-08-12T08:24:34.605Z,5432
2018-08-12T08:25:34.796Z,5356
2018-08-12T08:26:34.614Z,5192
2018-08-12T08:27:34.598Z,5016
2018-08-12T08:28:34.620Z,4864
2018-08-12T08:29:34.352Z,4736
2018-08-12T08:30:34.605Z,4568
2018-08-12T08:31:34.330Z,4456
2018-08-12T08:32:34.097Z,4336
2018-08-12T08:33:34.096Z,4156
2018-08-12T08:34:34.102Z,3916
2018-08-12T08:35:34.617Z,3888
2018-08-12T08:36:34.359Z,3804
2018-08-12T08:37:34.609Z,3756
2018-08-12T08:38:34.374Z,3624
2018-08-12T08:39:34.622Z,3596
2018-08-12T08:40:34.618Z,3608
2018-08-12T08:41:34.355Z,3576
2018-08-12T08:42:34.358Z,3552
2018-08-12T08:43:34.355Z,3544
2018-08-12T08:44:34.366Z,3544
2018-08-12T08:45:34.363Z,3556
2018-08-12T08:46:34.359Z,3576
2018-08-12T08:47:34.626Z,3588
2018-08-12T08:48:34.620Z,3592
2018-08-12T08:49:34.622Z,3636
2018-08-12T08:50:34.770Z,3676
2018-08-12T08:51:34.622Z,3732
2018-08-12T08:52:34.365Z,3792
2018-08-12T08:53:34.363Z,3832
2018-08-12T08:54:34.123Z,3964
2018-08-12T08:55:34.731Z,4060
2018-08-12T08:56:34.631Z,4164
2018-08-12T08:57:34.624Z,4284
2018-08-12T08:58:34.626Z,4372
2018-08-12T08:59:34.678Z,4472
2018-08-12T09:00:34.372Z,4572
2018-08-12T09:01:35.027Z,4652
2018-08-12T09:02:34.375Z,4672
2018-08-12T09:03:34.633Z,4828
2018-08-12T09:04:34.125Z,5032
2018-08-12T09:05:34.633Z,5140
2018-08-12T09:06:34.371Z,5232
2018-08-12T09:07:34.376Z,5340
2018-08-12T09:08:35.599Z,5436
2018-08-12T09:09:34.390Z,5536
2018-08-12T09:10:34.636Z,5672
2018-08-12T09:11:34.417Z,5888
2018-08-12T09:12:34.642Z,5972
2018-08-12T09:13:34.382Z,6104
2018-08-12T09:14:34.640Z,6268
2018-08-12T09:15:34.635Z,6384
2018-08-12T09:16:34.381Z,6564
2018-08-12T09:17:34.128Z,6716
2018-08-12T09:18:34.652Z,6844
2018-08-12T09:19:34.643Z,6928
2018-08-12T09:20:34.633Z,7056
2018-08-12T09:21:34.388Z,7172
2018-08-12T09:22:34.641Z,7284
2018-08-12T09:23:34.645Z,7520
2018-08-12T09:24:34.436Z,7656
2018-08-12T09:25:34.646Z,7676
2018-08-12T09:26:34.392Z,7704
2018-08-12T09:27:34.648Z,7784
2018-08-12T09:28:34.386Z,7788
2018-08-12T09:29:34.658Z,7856
2018-08-12T09:30:34.130Z,7868
2018-08-12T09:31:34.130Z,7856
2018-08-12T09:32:33.880Z,7760
2018-08-12T09:33:34.655Z,7664
2018-08-12T09:34:34.653Z,7560
2018-08-12T09:35:34.646Z,7328
2018-08-12T09:36:34.679Z,7284
2018-08-12T09:37:34.144Z,7424
2018-08-12T09:38:34.657Z,7280
2018-08-12T09:39:34.146Z,7096
2018-08-12T09:40:34.404Z,7060
2018-08-12T09:41:34.145Z,7092
2018-08-12T09:42:34.410Z,7132
2018-08-12T09:43:34.660Z,7096
2018-08-12T09:44:34.408Z,7152
2018-08-12T09:45:34.406Z,7280
2018-08-12T09:46:34.409Z,7360
2018-08-12T09:47:34.677Z,7400
2018-08-12T09:48:34.668Z,7440
2018-08-12T09:49:34.415Z,7520
2018-08-12T09:50:34.674Z,7652
2018-08-12T09:51:35.331Z,7816
2018-08-12T09:52:34.412Z,7972
2018-08-12T09:53:34.670Z,8100
2018-08-12T09:54:34.417Z,8648
2018-08-12T09:55:34.429Z,8840
2018-08-12T09:56:34.681Z,8992
2018-08-12T09:57:34.169Z,9056
2018-08-12T09:58:34.344Z,9112
2018-08-12T09:59:34.685Z,9032
2018-08-12T10:00:34.602Z,8948
2018-08-12T10:01:34.685Z,8732
2018-08-12T10:02:34.173Z,8572
2018-08-12T10:03:34.691Z,8392
2018-08-12T10:04:34.175Z,8080
2018-08-12T10:05:34.430Z,8024
2018-08-12T10:06:34.690Z,7628
2018-08-12T10:07:35.124Z,7432
2018-08-12T10:08:34.694Z,7288
2018-08-12T10:09:34.689Z,7148
2018-08-12T10:10:34.750Z,6936
2018-08-12T10:11:34.445Z,6648
2018-08-12T10:12:34.443Z,6352
2018-08-12T10:13:34.707Z,6156
2018-08-12T10:14:34.448Z,6164
2018-08-12T10:15:34.895Z,6092
2018-08-12T10:16:34.705Z,5920
2018-08-12T10:17:34.704Z,5852
2018-08-12T10:18:34.716Z,5596
2018-08-12T10:19:34.454Z,5232
2018-08-12T10:20:34.713Z,5236
2018-08-12T10:21:35.108Z,5376
2018-08-12T10:22:34.715Z,5464
2018-08-12T10:23:34.454Z,5540
2018-08-12T10:24:34.724Z,5560
2018-08-12T10:25:34.467Z,5484
2018-08-12T10:26:34.208Z,5440
2018-08-12T10:27:34.724Z,5340
2018-08-12T10:28:34.725Z,5232
2018-08-12T10:29:34.728Z,5264
2018-08-12T10:30:34.721Z,5252
2018-08-12T10:31:34.486Z,5304
2018-08-12T10:32:34.221Z,5280
2018-08-12T10:33:34.222Z,5308
2018-08-12T10:34:34.738Z,5332
2018-08-12T10:35:34.474Z,5336
2018-08-12T10:36:34.743Z,5328
2018-08-12T10:37:34.223Z,5224
2018-08-12T10:38:34.770Z,5220
2018-08-12T10:39:34.744Z,5268
2018-08-12T10:40:34.515Z,5308
2018-08-12T10:41:34.751Z,5296
2018-08-12T10:42:34.751Z,5304
2018-08-12T10:43:34.492Z,5336
2018-08-12T10:44:34.830Z,5332
2018-08-12T10:45:34.752Z,5416
2018-08-12T10:46:34.245Z,5400
2018-08-12T10:47:34.244Z,5436
2018-08-12T10:48:34.499Z,5424
2018-08-12T10:49:34.495Z,5424
2018-08-12T10:50:34.791Z,5480
2018-08-12T10:51:34.762Z,5516
2018-08-12T10:52:34.766Z,5544
2018-08-12T10:53:33.992Z,5524
2018-08-12T10:54:34.773Z,5488
2018-08-12T10:55:34.513Z,5484
2018-08-12T10:56:34.256Z,5500
2018-08-12T10:57:34.519Z,5496
2018-08-12T10:58:34.523Z,5476
2018-08-12T10:59:34.852Z,5384
2018-08-12T11:00:34.524Z,5432
2018-08-12T11:01:34.532Z,5448
2018-08-12T11:02:34.791Z,5396
2018-08-12T11:03:34.533Z,5456
2018-08-12T11:04:34.530Z,5400
2018-08-12T11:05:34.530Z,5316
2018-08-12T11:06:34.533Z,5264
2018-08-12T11:07:34.431Z,5252
2018-08-12T11:08:34.539Z,5208
2018-08-12T11:09:34.803Z,5164
2018-08-12T11:10:34.798Z,5080
2018-08-12T11:11:34.543Z,4984
2018-08-12T11:12:35.274Z,4884
2018-08-12T11:13:34.547Z,4784
2018-08-12T11:14:34.810Z,4676
2018-08-12T11:15:34.811Z,4540
2018-08-12T11:16:34.597Z,4424
2018-08-12T11:17:34.041Z,4304
2018-08-12T11:18:34.570Z,4188
2018-08-12T11:19:34.810Z,4124
2018-08-12T11:20:34.544Z,4068
2018-08-12T11:21:34.826Z,4000
2018-08-12T11:22:34.052Z,3908
2018-08-12T11:23:34.823Z,3812
2018-08-12T11:24:34.820Z,3744
2018-08-12T11:25:34.829Z,3728
2018-08-12T11:26:34.575Z,3552
2018-08-12T11:27:34.835Z,3468
2018-08-12T11:28:34.720Z,3400
2018-08-12T11:29:34.333Z,3340
2018-08-12T11:30:34.589Z,3284
2018-08-12T11:31:34.591Z,3232
2018-08-12T11:32:34.846Z,3196
2018-08-12T11:33:34.587Z,3172
2018-08-12T11:34:34.850Z,3160
2018-08-12T11:35:34.589Z,3152
2018-08-12T11:36:34.849Z,3152
2018-08-12T11:37:34.596Z,3144
2018-08-12T11:38:34.610Z,3140
2018-08-12T11:39:34.348Z,3124
2018-08-12T11:40:34.857Z,3116
2018-08-12T11:41:34.608Z,3104
2018-08-12T11:42:34.867Z,3088
2018-08-12T11:43:34.870Z,3060
2018-08-12T11:44:34.873Z,3032
2018-08-12T11:45:34.866Z,3008
2018-08-12T11:46:34.613Z,2980
2018-08-12T11:47:35.387Z,2956
2018-08-12T11:48:34.621Z,2936
2018-08-12T11:49:34.881Z,2908
2018-08-12T11:50:34.636Z,2884
2018-08-12T11:51:34.884Z,2868
2018-08-12T11:52:34.881Z,2844
2018-08-12T11:53:34.886Z,2828
2018-08-12T11:54:34.638Z,2816
2018-08-12T11:55:34.892Z,2800
2018-08-12T11:56:34.634Z,2776
2018-08-12T11:57:34.894Z,2764
2018-08-12T11:58:34.641Z,2752
2018-08-12T11:59:34.390Z,2740
2018-08-12T12:00:34.905Z,2732
2018-08-12T12:01:34.920Z,2720
2018-08-12T12:02:34.910Z,2716
2018-08-12T12:03:34.653Z,2712
2018-08-12T12:04:35.062Z,2712
2018-08-12T12:05:34.912Z,2708
2018-08-12T12:06:34.655Z,2708
2018-08-12T12:07:34.668Z,2704
2018-08-12T12:08:34.152Z,2700
2018-08-12T12:09:34.670Z,2696
2018-08-12T12:10:34.931Z,2696
2018-08-12T12:11:34.409Z,2688
2018-08-12T12:12:34.673Z,2692
2018-08-12T12:13:34.935Z,2692
2018-08-12T12:14:34.930Z,2688
2018-08-12T12:15:34.933Z,2692
2018-08-12T12:16:34.938Z,2688
2018-08-12T12:17:34.426Z,2692
2018-08-12T12:18:34.683Z,2704
2018-08-12T12:19:34.946Z,2704
2018-08-12T12:20:35.260Z,2720
2018-08-12T12:21:34.956Z,2736
2018-08-12T12:22:34.688Z,2732
2018-08-12T12:23:34.691Z,2764
2018-08-12T12:24:34.959Z,2816
2018-08-12T12:25:34.956Z,2840
2018-08-12T12:26:34.961Z,2804
2018-08-12T12:27:34.704Z,2816
2018-08-12T12:28:34.959Z,2792
2018-08-12T12:29:34.702Z,2764
2018-08-12T12:30:34.964Z,2760
2018-08-12T12:31:34.458Z,2756
2018-08-12T12:32:34.965Z,2748
2018-08-12T12:33:34.978Z,2744
2018-08-12T12:34:34.468Z,2760
2018-08-12T12:35:34.840Z,2824
2018-08-12T12:36:34.974Z,2820
2018-08-12T12:37:34.978Z,2780
2018-08-12T12:38:34.976Z,2784
2018-08-12T12:39:34.988Z,2824
2018-08-12T12:40:34.984Z,2836
2018-08-12T12:41:34.731Z,2844
2018-08-12T12:42:34.733Z,2820
2018-08-12T12:43:34.737Z,2820
2018-08-12T12:44:34.999Z,2824
2018-08-12T12:45:34.482Z,2828
2018-08-12T12:46:34.738Z,2836
2018-08-12T12:47:35.014Z,2840
2018-08-12T12:48:34.489Z,2848
2018-08-12T12:49:35.385Z,2856
2018-08-12T12:50:34.565Z,2872
2018-08-12T12:51:34.763Z,2888
2018-08-12T12:52:35.007Z,2900
2018-08-12T12:53:35.020Z,2912
2018-08-12T12:54:34.759Z,2924
2018-08-12T12:55:34.759Z,2936
2018-08-12T12:56:34.511Z,2948
2018-08-12T12:57:34.768Z,2956
2018-08-12T12:58:35.029Z,2960
2018-08-12T12:59:35.032Z,2992
2018-08-12T13:00:34.775Z,3020
2018-08-12T13:01:35.045Z,3028
2018-08-12T13:02:34.267Z,3028
2018-08-12T13:03:35.052Z,3032
2018-08-12T13:04:34.779Z,3048
2018-08-12T13:05:35.038Z,3064
2018-08-12T13:06:34.787Z,3100
2018-08-12T13:07:34.794Z,3144
2018-08-12T13:08:35.046Z,3172
2018-08-12T13:09:34.793Z,3156
2018-08-12T13:10:34.796Z,3104
2018-08-12T13:11:35.055Z,3064
2018-08-12T13:12:35.434Z,3048
2018-08-12T13:13:34.545Z,3020
2018-08-12T13:14:34.557Z,3000
2018-08-12T13:15:35.073Z,2992
2018-08-12T13:16:35.065Z,2980
2018-08-12T13:17:35.073Z,2964
2018-08-12T13:18:34.818Z,2944
2018-08-12T13:19:34.304Z,2920
2018-08-12T13:20:34.815Z,2904
2018-08-12T13:21:34.816Z,2884
2018-08-12T13:22:34.824Z,2884
2018-08-12T13:23:34.823Z,2884
2018-08-12T13:24:35.084Z,2876
2018-08-12T13:25:35.092Z,2876
2018-08-12T13:26:34.832Z,2892
2018-08-12T13:27:34.837Z,2904
2018-08-12T13:28:34.581Z,2916
2018-08-12T13:29:35.094Z,2920
2018-08-12T13:30:35.100Z,2932
2018-08-12T13:31:35.154Z,2932
2018-08-12T13:32:34.847Z,2932
2018-08-12T13:33:35.110Z,2920
2018-08-12T13:34:35.103Z,2924
2018-08-12T13:35:34.592Z,2936
2018-08-12T13:36:35.116Z,2956
2018-08-12T13:37:34.856Z,2976
2018-08-12T13:38:35.112Z,2988
2018-08-12T13:39:34.867Z,3000
2018-08-12T13:40:35.134Z,3024